createdAt,value
2018-01-20T00:02:11.733Z,16.97
2018-01-20T00:04:39.891Z,12.10
2018-01-20T00:07:08.050Z,14.30
2018-01-20T00:09:48.851Z,14.00
2018-01-20T00:12:18.248Z,13.70
2018-01-20T00:14:46.387Z,9.70
2018-01-20T00:17:16.288Z,11.03
2018-01-20T00:19:44.413Z,9.00
2018-01-20T00:22:21.268Z,11.10
2018-01-20T00:24:54.989Z,13.70
2018-01-20T00:27:23.142Z,7.87
2018-01-20T00:29:52.053Z,10.57
2018-01-20T00:32:20.972Z,8.83
2018-01-20T00:34:49.881Z,9.70
2018-01-20T00:37:18.045Z,9.30
2018-01-20T00:39:46.930Z,10.23
2018-01-20T00:42:15.072Z,9.87
2018-01-20T00:44:43.234Z,12.37
2018-01-20T00:47:12.174Z,9.97
2018-01-20T00:49:41.045Z,16.60
2018-01-20T00:52:09.176Z,9.67
2018-01-20T00:54:38.101Z,9.63
2018-01-20T00:57:06.245Z,9.50
2018-01-20T00:59:34.425Z,8.57
2018-01-20T01:02:02.568Z,10.83
2018-01-20T01:04:31.512Z,8.00
2018-01-20T01:07:00.420Z,8.07
2018-01-20T01:09:28.560Z,8.30
2018-01-20T01:11:56.710Z,10.77
2018-01-20T01:14:24.840Z,14.60
2018-01-20T01:16:53.747Z,11.00
2018-01-20T01:19:22.675Z,8.97
2018-01-20T01:21:50.813Z,6.27
2018-01-20T01:24:18.971Z,10.93
2018-01-20T01:26:47.817Z,10.07
2018-01-20T01:29:16.763Z,7.23
2018-01-20T01:31:44.918Z,7.53
2018-01-20T01:34:13.845Z,6.80
2018-01-20T01:36:42.005Z,10.63
2018-01-20T01:39:10.132Z,5.80
2018-01-20T01:41:38.263Z,3.67
2018-01-20T01:44:06.409Z,5.40
2018-01-20T01:46:34.540Z,2.50
2018-01-20T01:49:02.687Z,6.47
2018-01-20T01:51:30.825Z,13.23
2018-01-20T01:53:59.741Z,3.30
2018-01-20T01:56:27.913Z,6.70
2018-01-20T01:58:56.820Z,4.63
2018-01-20T02:01:25.730Z,4.37
2018-01-20T02:03:53.896Z,6.50
2018-01-20T02:06:22.794Z,6.50
2018-01-20T02:08:50.941Z,2.47
2018-01-20T02:11:19.076Z,5.00
2018-01-20T02:13:47.994Z,5.40
2018-01-20T02:16:16.755Z,3.50
2018-01-20T02:18:44.906Z,2.87
2018-01-20T02:21:13.799Z,3.30
2018-01-20T02:23:41.952Z,2.73
2018-01-20T02:26:10.841Z,6.40
2018-01-20T02:28:39.028Z,2.27
2018-01-20T02:31:07.157Z,1.37
2018-01-20T02:33:35.296Z,2.27
2018-01-20T02:36:03.462Z,1.83
2018-01-20T02:38:31.567Z,1.60
2018-01-20T02:40:59.710Z,2.20
2018-01-20T02:43:27.854Z,6.93
2018-01-20T02:45:55.989Z,3.57
2018-01-20T02:48:24.118Z,5.83
2018-01-20T02:50:52.276Z,4.07
2018-01-20T02:53:20.376Z,4.50
2018-01-20T02:55:48.524Z,5.87
2018-01-20T02:58:16.652Z,7.13
2018-01-20T03:00:44.821Z,3.13
2018-01-20T03:03:14.395Z,4.13
2018-01-20T03:05:42.556Z,4.70
2018-01-20T03:08:10.700Z,9.53
2018-01-20T03:10:38.816Z,5.50
2018-01-20T03:13:06.976Z,8.63
2018-01-20T03:15:35.088Z,6.90
2018-01-20T03:18:03.225Z,2.90
2018-01-20T03:20:31.349Z,8.63
2018-01-20T03:22:59.491Z,8.27
2018-01-20T03:25:27.624Z,9.30
2018-01-20T03:27:55.772Z,8.07
2018-01-20T03:30:23.907Z,9.43
2018-01-20T03:32:52.036Z,6.23
2018-01-20T03:35:20.173Z,17.43
2018-01-20T03:37:48.306Z,5.63
2018-01-20T03:40:16.456Z,9.57
2018-01-20T03:42:45.362Z,7.30
2018-01-20T03:45:13.493Z,7.93
2018-01-20T03:47:41.639Z,10.30
2018-01-20T03:50:10.563Z,8.03
2018-01-20T03:52:40.187Z,5.40
2018-01-20T03:55:08.320Z,7.43
2018-01-20T03:57:36.442Z,9.47
2018-01-20T04:00:05.360Z,6.40
2018-01-20T04:02:34.237Z,12.40
2018-01-20T04:05:02.403Z,15.90
2018-01-20T04:07:30.528Z,6.70
2018-01-20T04:10:00.404Z,9.07
2018-01-20T04:12:28.528Z,4.70
2018-01-20T04:14:57.465Z,10.87
2018-01-20T04:17:25.672Z,9.60
2018-01-20T04:19:53.798Z,9.30
2018-01-20T04:22:22.827Z,11.70
2018-01-20T04:24:51.712Z,9.23
2018-01-20T04:27:20.633Z,6.33
2018-01-20T04:29:49.540Z,7.33
2018-01-20T04:32:17.704Z,7.97
2018-01-20T04:34:46.614Z,5.70
2018-01-20T04:37:15.503Z,6.73
2018-01-20T04:39:43.649Z,6.10
2018-01-20T04:42:11.789Z,8.60
2018-01-20T04:44:40.697Z,6.27
2018-01-20T04:47:09.587Z,5.50
2018-01-20T04:49:37.729Z,9.70
2018-01-20T04:52:05.869Z,10.80
2018-01-20T04:54:34.028Z,6.23
2018-01-20T04:57:02.169Z,10.30
2018-01-20T04:59:30.290Z,8.67
2018-01-20T05:01:58.442Z,5.30
2018-01-20T05:04:26.582Z,13.93
2018-01-20T05:06:54.731Z,6.60
2018-01-20T05:09:22.870Z,6.00
2018-01-20T05:11:51.781Z,8.63
2018-01-20T05:14:20.674Z,8.37
2018-01-20T05:16:49.598Z,11.40
2018-01-20T05:19:17.725Z,10.83
2018-01-20T05:21:45.878Z,6.47
2018-01-20T05:24:14.020Z,7.70
2018-01-20T05:26:42.191Z,8.87
2018-01-20T05:29:10.475Z,10.50
2018-01-20T05:31:38.604Z,8.70
2018-01-20T05:34:07.501Z,6.80
2018-01-20T05:36:36.416Z,12.83
2018-01-20T05:39:05.317Z,6.80
2018-01-20T05:41:34.224Z,6.10
2018-01-20T05:44:02.360Z,4.67
2018-01-20T05:46:30.495Z,11.50
2018-01-20T05:48:58.654Z,8.60
2018-01-20T05:51:26.772Z,4.53
2018-01-20T05:53:54.929Z,11.90
2018-01-20T05:56:23.064Z,8.53
2018-01-20T05:58:51.209Z,11.13
2018-01-20T06:01:20.096Z,7.10
2018-01-20T06:03:48.247Z,9.50
2018-01-20T06:06:16.508Z,5.57
2018-01-20T06:08:45.392Z,9.10
2018-01-20T06:11:14.320Z,11.60
2018-01-20T06:13:42.473Z,6.17
2018-01-20T06:16:12.103Z,5.90
2018-01-20T06:18:41.018Z,10.40
2018-01-20T06:21:09.932Z,8.20
2018-01-20T06:23:38.808Z,7.30
2018-01-20T06:26:07.712Z,7.73
2018-01-20T06:28:36.607Z,6.63
2018-01-20T06:31:04.762Z,4.37
2018-01-20T06:33:32.925Z,6.33
2018-01-20T06:36:01.057Z,4.90
2018-01-20T06:38:29.195Z,4.70
2018-01-20T06:40:57.328Z,7.30
2018-01-20T06:43:25.485Z,7.97
2018-01-20T06:45:53.625Z,8.93
2018-01-20T06:48:22.529Z,8.37
2018-01-20T06:50:51.420Z,7.90
2018-01-20T06:53:19.560Z,5.80
2018-01-20T06:55:47.688Z,6.97
2018-01-20T06:58:15.842Z,8.73
2018-01-20T07:00:43.992Z,7.67
2018-01-20T07:03:12.125Z,5.30
2018-01-20T07:05:40.269Z,5.93
2018-01-20T07:08:08.398Z,16.07
2018-01-20T07:10:37.316Z,4.73
2018-01-20T07:13:05.464Z,15.20
2018-01-20T07:15:33.635Z,7.93
2018-01-20T07:18:01.776Z,9.87
2018-01-20T07:20:29.912Z,8.37
2018-01-20T07:22:58.086Z,9.13
2018-01-20T07:25:26.217Z,5.90
2018-01-20T07:27:54.392Z,4.87
2018-01-20T07:30:22.519Z,16.23
2018-01-20T07:32:51.435Z,11.30
2018-01-20T07:35:20.338Z,10.60
2018-01-20T07:37:49.256Z,7.60
2018-01-20T07:40:17.398Z,8.37
2018-01-20T07:42:45.550Z,11.93
2018-01-20T07:45:13.697Z,14.10
2018-01-20T07:47:42.617Z,8.77
2018-01-20T07:50:10.761Z,12.60
2018-01-20T07:52:38.908Z,4.20
2018-01-20T07:55:07.074Z,7.50
2018-01-20T07:57:35.214Z,16.07
2018-01-20T08:00:03.368Z,5.10
2018-01-20T08:02:31.537Z,7.10
2018-01-20T08:05:00.429Z,7.23
2018-01-20T08:07:29.328Z,3.97
2018-01-20T08:09:58.229Z,7.37
2018-01-20T08:12:27.113Z,6.07
2018-01-20T08:14:55.269Z,8.13
2018-01-20T08:17:23.421Z,8.37
2018-01-20T08:19:52.305Z,6.93
2018-01-20T08:22:21.243Z,11.90
2018-01-20T08:24:49.397Z,9.60
2018-01-20T08:27:18.316Z,8.20
2018-01-20T08:29:46.449Z,11.30
2018-01-20T08:32:14.612Z,9.10
2018-01-20T08:34:42.760Z,10.17
2018-01-20T08:37:11.672Z,8.07
2018-01-20T08:39:40.579Z,8.53
2018-01-20T08:42:08.729Z,6.60
2018-01-20T08:44:36.852Z,10.63
2018-01-20T08:47:05.004Z,10.23
2018-01-20T08:49:33.161Z,6.33
2018-01-20T08:52:01.319Z,13.53
2018-01-20T08:54:29.460Z,13.83
2018-01-20T08:56:57.577Z,14.60
2018-01-20T08:59:25.745Z,18.37
2018-01-20T09:01:54.656Z,6.83
2018-01-20T09:04:23.601Z,12.27
2018-01-20T09:06:52.524Z,5.57
2018-01-20T09:09:20.684Z,10.30
2018-01-20T09:11:48.824Z,10.50
2018-01-20T09:14:16.980Z,8.70
2018-01-20T09:16:45.114Z,6.20
2018-01-20T09:19:13.263Z,8.20
2018-01-20T09:21:42.162Z,7.73
2018-01-20T09:24:10.321Z,11.23
2018-01-20T09:26:38.450Z,12.17
2018-01-20T09:29:06.604Z,6.10
2018-01-20T09:31:34.720Z,7.70
2018-01-20T09:34:02.933Z,4.83
2018-01-20T09:36:31.828Z,6.83
2018-01-20T09:39:00.755Z,7.90
2018-01-20T09:41:28.888Z,7.63
2018-01-20T09:43:57.019Z,7.07
2018-01-20T09:46:25.181Z,6.00
2018-01-20T09:48:53.302Z,5.73
2018-01-20T09:51:21.448Z,6.07
2018-01-20T09:53:49.629Z,10.00
2018-01-20T09:56:18.551Z,7.03
2018-01-20T09:58:46.685Z,6.37
2018-01-20T10:01:15.592Z,8.30
2018-01-20T10:03:43.722Z,7.93
2018-01-20T10:06:11.874Z,8.20
2018-01-20T10:08:40.785Z,2.77
2018-01-20T10:11:12.037Z,9.53
2018-01-20T10:13:40.944Z,7.80
2018-01-20T10:16:09.084Z,9.90
2018-01-20T10:18:37.986Z,4.57
2018-01-20T10:21:06.115Z,6.30
2018-01-20T10:23:34.718Z,15.10
2018-01-20T10:26:02.885Z,6.53
2018-01-20T10:28:31.037Z,6.93
2018-01-20T10:30:59.192Z,8.90
2018-01-20T10:33:28.088Z,14.10
2018-01-20T10:35:56.212Z,4.80
2018-01-20T10:38:24.357Z,7.97
2018-01-20T10:40:54.000Z,7.20
2018-01-20T10:43:22.172Z,9.93
2018-01-20T10:45:50.327Z,11.23
2018-01-20T10:48:18.541Z,6.20
2018-01-20T10:50:46.694Z,8.27
2018-01-20T10:53:15.577Z,8.40
2018-01-20T10:55:44.151Z,9.43
2018-01-20T10:58:12.306Z,7.30
2018-01-20T11:00:40.466Z,6.43
2018-01-20T11:03:08.634Z,12.83
2018-01-20T11:05:36.769Z,10.93
2018-01-20T11:08:04.928Z,7.70
2018-01-20T11:13:07.568Z,13.90
2018-01-20T11:15:36.506Z,11.10
2018-01-20T11:18:04.634Z,9.37
2018-01-20T11:20:32.794Z,7.27
2018-01-20T11:23:01.696Z,13.43
2018-01-20T11:25:31.597Z,8.70
2018-01-20T11:27:59.738Z,10.87
2018-01-20T11:30:27.905Z,9.70
2018-01-20T11:32:56.833Z,7.87
2018-01-20T11:35:24.964Z,9.13
2018-01-20T11:37:53.144Z,8.17
2018-01-20T11:40:21.288Z,7.53
2018-01-20T11:42:49.415Z,9.03
2018-01-20T11:45:17.563Z,8.93
2018-01-20T11:47:45.707Z,7.93
2018-01-20T11:50:15.470Z,11.00
2018-01-20T11:52:44.184Z,8.33
2018-01-20T11:55:12.322Z,11.23
2018-01-20T11:57:40.511Z,9.73
2018-01-20T12:00:10.097Z,9.03
2018-01-20T12:02:38.252Z,9.50
2018-01-20T12:05:06.432Z,6.07
2018-01-20T12:07:34.560Z,6.70
2018-01-20T12:10:02.711Z,8.20
2018-01-20T12:12:30.860Z,7.40
2018-01-20T12:14:59.761Z,6.20
2018-01-20T12:17:28.691Z,6.40
2018-01-20T12:19:56.843Z,6.77
2018-01-20T12:22:25.012Z,6.33
2018-01-20T12:24:53.154Z,9.57
2018-01-20T12:27:21.323Z,7.87
2018-01-20T12:29:49.450Z,5.23
2018-01-20T12:32:17.580Z,10.57
2018-01-20T12:34:45.757Z,7.07
2018-01-20T12:37:14.680Z,3.43
2018-01-20T12:39:43.593Z,7.70
2018-01-20T12:42:11.755Z,11.40
2018-01-20T12:44:39.891Z,9.50
2018-01-20T12:47:08.020Z,9.40
2018-01-20T12:49:36.945Z,6.37
2018-01-20T12:52:05.134Z,7.87
2018-01-20T12:54:34.074Z,4.90
2018-01-20T12:57:02.204Z,7.60
2018-01-20T12:59:31.144Z,6.20
2018-01-20T13:01:59.309Z,6.17
2018-01-20T13:04:28.218Z,7.13
2018-01-20T13:06:56.381Z,6.57
2018-01-20T13:09:25.446Z,7.87
2018-01-20T13:11:53.614Z,9.90
2018-01-20T13:14:21.791Z,14.50
2018-01-20T13:16:49.980Z,12.30
2018-01-20T13:19:18.137Z,11.23
2018-01-20T13:21:47.092Z,11.80
2018-01-20T13:24:15.247Z,8.50
2018-01-20T13:26:44.160Z,23.80
2018-01-20T13:29:12.332Z,11.17
2018-01-20T13:31:41.229Z,18.60
2018-01-20T13:34:11.079Z,17.10
2018-01-20T13:36:39.241Z,7.07
2018-01-20T13:39:09.344Z,9.13
2018-01-20T13:41:37.493Z,7.83
2018-01-20T13:44:05.655Z,8.93
2018-01-20T13:46:34.579Z,6.30
2018-01-20T13:49:02.708Z,8.30
2018-01-20T13:51:30.873Z,18.43
2018-01-20T13:53:59.760Z,15.87
2018-01-20T13:56:27.910Z,7.67
2018-01-20T13:58:56.857Z,27.80
2018-01-20T14:01:25.007Z,17.70
2018-01-20T14:03:54.625Z,72.57
2018-01-20T14:06:22.773Z,40.90
2018-01-20T14:08:50.940Z,14.00
2018-01-20T14:11:19.075Z,11.53
2018-01-20T14:13:48.000Z,9.03
2018-01-20T14:16:16.151Z,12.37
2018-01-20T14:18:44.296Z,12.03
2018-01-20T14:21:13.088Z,13.13
2018-01-20T14:23:42.064Z,10.57
2018-01-20T14:26:10.196Z,7.40
2018-01-20T14:28:39.114Z,8.27
2018-01-20T14:31:07.256Z,6.93
2018-01-20T14:33:35.396Z,7.43
2018-01-20T14:36:03.574Z,6.23
2018-01-20T14:38:31.726Z,8.00
2018-01-20T14:40:59.918Z,9.07
2018-01-20T14:43:28.065Z,7.97
2018-01-20T14:45:56.206Z,8.73
2018-01-20T14:48:24.362Z,9.10
2018-01-20T14:50:52.488Z,7.00
2018-01-20T14:53:21.543Z,9.60
2018-01-20T14:55:49.709Z,7.10
2018-01-20T14:58:18.695Z,13.83
2018-01-20T15:00:46.905Z,6.97
2018-01-20T15:03:15.070Z,10.23
2018-01-20T15:05:43.220Z,9.73
2018-01-20T15:08:11.400Z,21.60
2018-01-20T15:10:39.529Z,22.10
2018-01-20T15:13:07.732Z,9.80
2018-01-20T15:15:37.053Z,14.70
2018-01-20T15:18:05.787Z,13.03
2018-01-20T15:20:33.946Z,15.20
2018-01-20T15:23:03.578Z,5.80
2018-01-20T15:25:32.515Z,11.53
2018-01-20T15:28:00.656Z,3.90
2018-01-20T15:30:29.605Z,7.30
2018-01-20T15:32:57.805Z,7.90
2018-01-20T15:35:25.952Z,6.17
2018-01-20T15:37:54.109Z,12.33
2018-01-20T15:40:22.294Z,10.90
2018-01-20T15:42:50.465Z,36.10
2018-01-20T15:45:19.366Z,17.40
2018-01-20T15:47:49.363Z,8.50
2018-01-20T15:50:18.787Z,7.37
2018-01-20T15:52:46.948Z,32.67
2018-01-20T15:55:15.094Z,17.87
2018-01-20T15:57:43.232Z,17.20
2018-01-20T16:00:11.440Z,12.00
2018-01-20T16:02:39.634Z,7.63
2018-01-20T16:05:07.803Z,5.07
2018-01-20T16:07:36.273Z,11.10
2018-01-20T16:10:05.238Z,10.30
2018-01-20T16:12:33.381Z,7.60
2018-01-20T16:15:01.542Z,11.93
2018-01-20T16:17:29.740Z,5.77
2018-01-20T16:19:57.871Z,7.47
2018-01-20T16:22:26.034Z,4.67
2018-01-20T16:24:54.205Z,3.50
2018-01-20T16:27:22.357Z,9.57
2018-01-20T16:29:50.520Z,8.80
2018-01-20T16:32:18.665Z,5.10
2018-01-20T16:34:46.781Z,3.97
2018-01-20T16:37:14.992Z,4.57
2018-01-20T16:39:43.141Z,3.73
2018-01-20T16:42:11.315Z,4.47
2018-01-20T16:44:39.464Z,7.47
2018-01-20T16:47:08.438Z,4.20
2018-01-20T16:49:36.590Z,5.73
2018-01-20T16:52:04.744Z,6.10
2018-01-20T16:54:33.671Z,9.17
2018-01-20T16:57:02.617Z,12.50
2018-01-20T16:59:31.561Z,8.33
2018-01-20T17:02:00.479Z,7.60
2018-01-20T17:04:29.395Z,19.67
2018-01-20T17:06:57.546Z,44.33
2018-01-20T17:09:25.736Z,39.10
2018-01-20T17:11:54.670Z,31.87
2018-01-20T17:14:22.839Z,18.40
2018-01-20T17:16:52.661Z,9.80
2018-01-20T17:19:21.590Z,11.70
2018-01-20T17:21:49.763Z,8.80
2018-01-20T17:24:17.906Z,8.10
2018-01-20T17:26:46.865Z,8.53
2018-01-20T17:29:14.986Z,17.90
2018-01-20T17:31:43.189Z,18.50
2018-01-20T17:34:11.308Z,12.93
2018-01-20T17:36:39.496Z,6.10
2018-01-20T17:39:07.653Z,10.17
2018-01-20T17:41:36.649Z,10.73
2018-01-20T17:44:04.844Z,8.10
2018-01-20T17:46:33.576Z,15.37
2018-01-20T17:49:01.774Z,13.90
2018-01-20T17:51:29.964Z,17.40
2018-01-20T17:53:58.107Z,18.73
2018-01-20T17:56:27.039Z,10.47
2018-01-20T17:58:55.215Z,11.43
2018-01-20T18:01:24.397Z,11.17
2018-01-20T18:03:52.543Z,8.90
2018-01-20T18:06:20.705Z,12.60
2018-01-20T18:08:48.898Z,13.50
2018-01-20T18:11:17.834Z,7.27
2018-01-20T18:13:46.039Z,7.10
2018-01-20T18:16:14.208Z,11.90
2018-01-20T18:18:42.361Z,6.80
2018-01-20T18:21:10.530Z,15.83
2018-01-20T18:23:39.477Z,16.37
2018-01-20T18:26:07.637Z,16.70
2018-01-20T18:28:35.799Z,13.60
2018-01-20T18:31:04.760Z,11.90
2018-01-20T18:33:32.926Z,17.17
2018-01-20T18:36:01.100Z,12.07
2018-01-20T18:38:30.078Z,10.83
2018-01-20T18:40:58.221Z,9.93
2018-01-20T18:43:26.411Z,11.47
2018-01-20T18:45:54.565Z,13.43
2018-01-20T18:48:23.483Z,13.80
2018-01-20T18:50:51.647Z,16.67
2018-01-20T18:53:21.435Z,14.27
2018-01-20T18:55:49.625Z,12.17
2018-01-20T18:58:17.765Z,12.73
2018-01-20T19:00:45.927Z,12.30
2018-01-20T19:03:14.860Z,16.00
2018-01-20T19:05:43.028Z,11.70
2018-01-20T19:08:11.183Z,12.07
2018-01-20T19:10:39.357Z,11.10
2018-01-20T19:13:07.500Z,12.90
2018-01-20T19:15:35.668Z,16.23
2018-01-20T19:18:03.817Z,16.87
2018-01-20T19:20:31.987Z,17.87
2018-01-20T19:23:00.124Z,14.70
2018-01-20T19:25:29.047Z,13.97
2018-01-20T19:27:57.245Z,14.20
2018-01-20T19:30:26.201Z,16.23
2018-01-20T19:32:55.566Z,18.63
2018-01-20T19:35:23.689Z,18.47
2018-01-20T19:37:51.853Z,18.43
2018-01-20T19:40:20.040Z,14.93
2018-01-20T19:42:48.759Z,16.10
2018-01-20T19:45:16.925Z,20.43
2018-01-20T19:47:45.100Z,19.17
2018-01-20T19:50:13.263Z,16.93
2018-01-20T19:52:41.440Z,26.23
2018-01-20T19:55:10.388Z,25.80
2018-01-20T19:57:38.540Z,20.97
2018-01-20T20:00:07.505Z,23.13
2018-01-20T20:02:36.289Z,19.93
2018-01-20T20:05:04.465Z,16.30
2018-01-20T20:07:32.630Z,16.17
2018-01-20T20:10:00.798Z,14.37
2018-01-20T20:12:29.711Z,16.33
2018-01-20T20:14:57.854Z,17.20
2018-01-20T20:17:26.053Z,17.53
2018-01-20T20:19:54.220Z,17.00
2018-01-20T20:22:22.412Z,15.97
2018-01-20T20:24:50.561Z,17.80
2018-01-20T20:27:18.766Z,23.13
2018-01-20T20:29:46.979Z,19.50
2018-01-20T20:32:15.124Z,17.20
2018-01-20T20:34:44.508Z,14.63
2018-01-20T20:37:12.667Z,10.67
2018-01-20T20:39:40.836Z,8.93
2018-01-20T20:42:14.050Z,13.43
2018-01-20T20:44:43.092Z,11.27
2018-01-20T20:47:12.037Z,12.60
2018-01-20T20:49:40.197Z,10.40
2018-01-20T20:52:08.382Z,17.03
2018-01-20T20:54:37.432Z,12.07
2018-01-20T20:57:05.629Z,9.90
2018-01-20T20:59:33.755Z,11.20
2018-01-20T21:02:02.498Z,8.83
2018-01-20T21:04:31.675Z,10.57
2018-01-20T21:07:03.235Z,17.30
2018-01-20T21:09:32.132Z,10.00
2018-01-20T21:12:00.305Z,14.20
2018-01-20T21:14:29.613Z,14.33
2018-01-20T21:16:59.222Z,18.37
2018-01-20T21:19:28.116Z,15.30
2018-01-20T21:21:56.276Z,12.03
2018-01-20T21:24:24.465Z,13.90
2018-01-20T21:26:53.459Z,14.87
2018-01-20T21:29:21.621Z,14.17
2018-01-20T21:31:49.772Z,13.23
2018-01-20T21:34:18.696Z,17.73
2018-01-20T21:36:46.878Z,13.00
2018-01-20T21:39:15.033Z,14.00
2018-01-20T21:41:43.217Z,15.90
2018-01-20T21:44:11.934Z,14.80
2018-01-20T21:46:40.090Z,16.93
2018-01-20T21:49:09.871Z,18.07
2018-01-20T21:51:38.794Z,16.67
2018-01-20T21:54:08.174Z,18.63
2018-01-20T21:56:37.109Z,20.60
2018-01-20T21:59:06.015Z,22.90
2018-01-20T22:01:34.224Z,20.97
2018-01-20T22:04:03.136Z,25.20
2018-01-20T22:06:32.167Z,25.07
2018-01-20T22:09:00.916Z,25.27
2018-01-20T22:11:29.861Z,26.10
2018-01-20T22:13:58.938Z,24.50
2018-01-20T22:16:27.078Z,25.10
2018-01-20T22:18:56.085Z,25.27
2018-01-20T22:21:24.262Z,23.70
2018-01-20T22:23:52.431Z,24.80
2018-01-20T22:26:20.579Z,24.83
2018-01-20T22:28:50.261Z,27.27
2018-01-20T22:31:18.420Z,29.30
2018-01-20T22:33:46.564Z,30.87
2018-01-20T22:36:14.751Z,31.10
2018-01-20T22:38:42.889Z,31.60
2018-01-20T22:41:11.074Z,30.30
2018-01-20T22:43:39.782Z,33.03
2018-01-20T22:46:07.945Z,25.10
2018-01-20T22:48:36.124Z,22.90
2018-01-20T22:51:04.315Z,27.30
2018-01-20T22:53:32.475Z,25.57
2018-01-20T22:56:01.802Z,24.93
2018-01-20T22:58:29.976Z,24.10
2018-01-20T23:01:04.538Z,22.50
2018-01-20T23:03:32.689Z,24.67
2018-01-20T23:06:01.630Z,22.90
2018-01-20T23:08:29.792Z,23.40
2018-01-20T23:10:57.925Z,18.37
2018-01-20T23:13:26.089Z,17.20
2018-01-20T23:15:54.245Z,20.63
2018-01-20T23:18:23.204Z,18.70
2018-01-20T23:20:51.356Z,16.13
2018-01-20T23:23:20.405Z,19.83
2018-01-20T23:25:48.608Z,17.33
2018-01-20T23:28:17.517Z,16.70
2018-01-20T23:30:46.465Z,15.57
2018-01-20T23:33:14.617Z,16.73
2018-01-20T23:35:42.783Z,13.47
2018-01-20T23:38:10.985Z,15.47
2018-01-20T23:40:39.120Z,14.50
2018-01-20T23:43:07.275Z,14.60
2018-01-20T23:45:36.221Z,16.87
2018-01-20T23:48:05.159Z,16.53
2018-01-20T23:50:33.320Z,15.00
2018-01-20T23:53:01.471Z,15.43
2018-01-20T23:55:29.650Z,15.40
2018-01-20T23:57:57.804Z,16.80
